Chrysanthemum — C6XO4 — position and weather

sailwx.info

Track history (hours):
 
Tides and Currents Weather Stations Pressure Air Temp Water Temp Dewpoint Dewpoint Depression Visibility Wind Speed Wind Dir Waves Ship Positions

Chrysanthemum

Last reported at 2016-Jun-19 08:33 UTC. Time now 2016-Jun-27 04:10 UTC.
Position N 01°57' E 102°18'.

Length 244 m; draft 7.8 m.

Type: Ship. MMSI: 311015300.

Date/timePositionNaut miles runAvg speedWind from/ knotsBaromVisibWave heightAir tempDewpointWater temp
2016-Jun-19 08:33N 01°57' E 102°18'1413.6
2016-Jun-19 07:34N 01°51' E 102°30'1414.3
2016-Jun-19 06:33N 01°45' E 102°43'6613.0
2016-Jun-19 01:31N 01°11' E 103°39'1010.9
2016-Jun-19 00:33N 01°11' E 103°49'8 7.6
2016-Jun-18 23:34N 01°16' E 103°55'0 0.0
2016-Jun-18 22:31N 01°16' E 103°55'0 0.1
2016-Jun-18 21:31N 01°16' E 103°55'0 0.0
2016-Jun-18 20:31N 01°16' E 103°55'0 0.0
2016-Jun-18 19:31N 01°16' E 103°55'0 0.0
2016-Jun-18 18:31N 01°16' E 103°55'0 0.0
2016-Jun-18 17:31N 01°16' E 103°55'0 0.0
2016-Jun-18 16:31N 01°16' E 103°55'0 0.0
2016-Jun-18 15:31N 01°16' E 103°55'0 0.1
2016-Jun-18 14:31N 01°16' E 103°55'0 0.1
2016-Jun-18 13:31N 01°16' E 103°55'0 0.1
2016-Jun-18 12:22N 01°16' E 103°55'0 0.1
2016-Jun-18 11:31N 01°16' E 103°55'0 0.0
2016-Jun-18 10:31N 01°16' E 103°55'0 0.0
2016-Jun-18 09:31N 01°16' E 103°55'0 0.0
2016-Jun-18 08:25N 01°16' E 103°55'1 0.7
2016-Jun-18 07:33N 01°16' E 103°55'6 5.5
2016-Jun-18 06:33N 01°16' E 104°01'9 8.7
2016-Jun-18 05:30N 01°17' E 104°10'  
2016-Jun-10 16:19S 20°30' E 116°44'  
Track history (hours):
 
Tides and Currents Weather Stations Pressure Air Temp Water Temp Dewpoint Dewpoint Depression Visibility Wind Speed Wind Dir Waves Ship Positions

Chrysanthemum

Last reported at 2016-Jun-19 08:33 UTC. Time now 2016-Jun-27 04:10 UTC.
Position N 01°57' E 102°18'.

Length 244 m; draft 7.8 m.

Type: Ship. MMSI: 311015300.

Date/timePositionNaut miles runAvg speedWind from/ knotsBaromVisibWave heightAir tempDewpointWater temp
2016-Jun-19 08:33N 01°57' E 102°18'1413.6
2016-Jun-19 07:34N 01°51' E 102°30'1414.3
2016-Jun-19 06:33N 01°45' E 102°43'6613.0
2016-Jun-19 01:31N 01°11' E 103°39'1010.9
2016-Jun-19 00:33N 01°11' E 103°49'8 7.6
2016-Jun-18 23:34N 01°16' E 103°55'0 0.0
2016-Jun-18 22:31N 01°16' E 103°55'0 0.1
2016-Jun-18 21:31N 01°16' E 103°55'0 0.0
2016-Jun-18 20:31N 01°16' E 103°55'0 0.0
2016-Jun-18 19:31N 01°16' E 103°55'0 0.0
2016-Jun-18 18:31N 01°16' E 103°55'0 0.0
2016-Jun-18 17:31N 01°16' E 103°55'0 0.0
2016-Jun-18 16:31N 01°16' E 103°55'0 0.0
2016-Jun-18 15:31N 01°16' E 103°55'0 0.1
2016-Jun-18 14:31N 01°16' E 103°55'0 0.1
2016-Jun-18 13:31N 01°16' E 103°55'0 0.1
2016-Jun-18 12:22N 01°16' E 103°55'0 0.1
2016-Jun-18 11:31N 01°16' E 103°55'0 0.0
2016-Jun-18 10:31N 01°16' E 103°55'0 0.0
2016-Jun-18 09:31N 01°16' E 103°55'0 0.0
2016-Jun-18 08:25N 01°16' E 103°55'1 0.7
2016-Jun-18 07:33N 01°16' E 103°55'6 5.5
2016-Jun-18 06:33N 01°16' E 104°01'9 8.7
2016-Jun-18 05:30N 01°17' E 104°10'  
2016-Jun-10 16:19S 20°30' E 116°44'  

Dump ship's entire track history